1999 DAVINA (1999060S10089)


On this page: IBTrACS data - Map and Plots - Positions - Intensities - Original source data

Summary

Start Mar 1
End Mar 19
Basin SI
LMI 120 kt
Sources jtwc_sh
reunion
neumann
In WMO? Yes
Previous storm 1999 GITA (SP)
Previous in basin 1999 HSK2499 (SI)
Concurrent storms 1999 HSK2499 (SI)
1999 GITA (SP)
1999 DAVINA (SI)
1999 HSK2799 (SI)
1999 HALI (SP)
1999 E39899 (SI)
1999 ELAINE (SI)
1999 VANCE (SI)
Next in basin 1999 HSK2799 (SI)
Next storm 1999 HSK2799 (SI)

top of page IBTrACS Data: File Access

top of page HURSAT Data: File Access

Image of storm

top of page Plots:

Map of storm track will not appear if FTP is down
Time series of cyclone Maximum Sustained Wind will not appear if FTP is down
Time series of cyclone Minimum Central Pressure will not appear if FTP is down

top of page Track Data:Position

jtwc_sh reunion neumann
Date Lat Lon Lat Lon Lat Lon
1999-03-01 06:00:00 -9.9 89.2
1999-03-01 12:00:00 -9.8 89.3
1999-03-01 18:00:00 -9.7 89.4 -10.8 88.8
1999-03-02 00:00:00 -9.6 89.6 -10.1 89.2
1999-03-02 06:00:00 -9.6 89.8 -9.5 89.6 -9.5 89.6
1999-03-02 12:00:00 -9.6 90.0 -9.7 90.2 -9.7 90.2
1999-03-02 18:00:00 -9.9 90.4 -10.0 90.7 -10.0 90.7
1999-03-03 00:00:00 -10.2 90.5 -10.2 91.2 -10.2 91.2
1999-03-03 06:00:00 -10.6 90.6 -10.6 90.9 -10.6 90.9
1999-03-03 12:00:00 -11.2 90.4 -11.2 90.6 -11.2 90.6
1999-03-03 18:00:00 -11.6 90.1 -11.7 90.0 -11.7 90.0
1999-03-04 00:00:00 -11.8 89.8 -11.8 89.6 -11.8 89.6
1999-03-04 06:00:00 -12.0 89.3 -12.1 88.7 -12.1 88.7
1999-03-04 12:00:00 -12.6 88.2 -12.4 87.5 -12.4 87.5
1999-03-04 18:00:00 -13.5 86.7 -12.7 86.1 -12.7 86.1
1999-03-05 00:00:00 -13.6 85.3 -13.0 84.7 -13.0 84.7
1999-03-05 06:00:00 -13.7 83.8 -13.4 83.5 -13.4 83.5
1999-03-05 12:00:00 -14.0 82.2 -13.9 82.6 -13.9 82.6
1999-03-05 18:00:00 -14.5 80.8 -14.4 81.2 -14.4 81.2
1999-03-06 00:00:00 -14.8 79.4 -14.7 79.8 -14.7 79.8
1999-03-06 06:00:00 -15.1 78.0 -15.0 78.4 -15.0 78.4
1999-03-06 12:00:00 -15.5 76.7 -15.4 77.1 -15.4 77.1
1999-03-06 18:00:00 -15.9 75.5 -15.9 75.4 -15.9 75.4
1999-03-07 00:00:00 -16.3 74.1 -16.3 73.9 -16.3 73.9
1999-03-07 06:00:00 -16.6 72.7 -16.5 72.3 -16.5 72.3
jtwc_sh reunion neumann
1999-03-07 12:00:00 -17.0 71.1 -16.8 70.7 -16.8 70.7
1999-03-07 18:00:00 -17.2 69.4 -17.0 69.2 -17.0 69.2
1999-03-08 00:00:00 -17.3 67.8 -17.3 67.4 -17.3 67.4
1999-03-08 06:00:00 -17.4 66.4 -17.5 65.9 -17.5 65.9
1999-03-08 12:00:00 -17.8 65.1 -17.8 64.4 -17.8 64.4
1999-03-08 18:00:00 -18.4 63.5 -18.4 63.1 -18.4 63.1
1999-03-09 00:00:00 -19.0 61.8 -19.0 61.6 -19.0 61.6
1999-03-09 06:00:00 -19.6 60.1 -19.5 60.0 -19.5 60.0
1999-03-09 12:00:00 -20.2 58.8 -20.0 58.7 -20.0 58.7
1999-03-09 18:00:00 -20.8 57.5 -20.7 57.6 -20.7 57.6
1999-03-10 00:00:00 -21.3 56.5 -21.1 56.6 -21.1 56.6
1999-03-10 06:00:00 -21.7 55.7 -21.8 55.4 -21.8 55.4
1999-03-10 12:00:00 -22.2 54.8 -22.1 54.4 -22.1 54.4
1999-03-10 18:00:00 -22.6 54.2 -22.3 53.6 -22.3 53.6
1999-03-11 00:00:00 -22.9 53.4 -22.4 53.2 -22.4 53.2
1999-03-11 06:00:00 -23.0 53.2 -22.9 52.7 -22.9 52.7
1999-03-11 12:00:00 -23.0 52.9 -23.0 52.6 -23.0 52.6
1999-03-11 18:00:00 -23.1 52.6 -23.1 52.5 -23.1 52.5
1999-03-12 00:00:00 -23.1 52.4 -23.3 52.4 -23.3 52.4
1999-03-12 06:00:00 -23.0 52.3 -23.0 52.4 -23.0 52.4
1999-03-12 12:00:00 -22.8 52.3 -22.9 52.4 -22.9 52.4
1999-03-12 18:00:00 -22.6 52.3 -22.3 52.5 -22.3 52.5
1999-03-13 00:00:00 -22.4 52.4 -22.1 52.6 -22.1 52.6
1999-03-13 06:00:00 -22.1 52.7 -22.0 52.8 -22.0 52.8
jtwc_sh reunion neumann
1999-03-13 12:00:00 -22.1 52.9 -22.1 52.9 -22.1 52.9
1999-03-13 18:00:00 -22.0 53.1 -22.0 53.0 -22.0 53.0
1999-03-14 00:00:00 -21.9 52.9 -21.6 52.8 -21.6 52.8
1999-03-14 06:00:00 -21.6 52.6 -21.5 52.8 -21.5 52.8
1999-03-14 12:00:00 -21.4 52.4 -21.5 52.6 -21.5 52.6
1999-03-14 18:00:00 -21.0 51.9 -20.9 51.6 -20.9 51.6
1999-03-15 00:00:00 -20.8 51.4 -20.5 51.0 -20.5 51.0
1999-03-15 06:00:00 -20.6 51.0 -20.3 50.2 -20.3 50.2
1999-03-15 12:00:00 -20.0 49.9 -20.0 49.9
1999-03-15 18:00:00 -19.9 49.6 -19.9 49.6
1999-03-16 00:00:00 -19.9 49.3 -19.9 49.3
1999-03-16 06:00:00 -20.2 49.3 -20.2 49.3
1999-03-16 12:00:00 -20.5 49.3 -20.5 49.3
1999-03-16 18:00:00 -20.7 49.3 -20.7 49.3
1999-03-17 00:00:00 -20.8 49.3 -20.8 49.3
1999-03-17 06:00:00 -20.9 49.4 -20.9 49.4
1999-03-17 12:00:00 -20.7 49.5 -20.7 49.5
1999-03-17 18:00:00 -20.6 49.8 -20.6 49.8
1999-03-18 00:00:00 -20.9 50.1 -20.9 50.1
1999-03-18 06:00:00 -21.3 50.5 -21.3 50.5
1999-03-18 12:00:00 -21.4 50.9 -21.4 50.9
1999-03-18 18:00:00 -21.0 50.9 -21.0 50.9
1999-03-19 00:00:00 -20.4 51.0 -20.4 51.0
1999-03-19 06:00:00 -19.7 51.1 -19.7 51.1
jtwc_sh reunion neumann
1999-03-19 12:00:00 -19.0 51.1 -19.0 51.1

top of pageTrack Data:Intensity

jtwc_sh reunion neumann
Date Wind Pres Wind Pres Wind Pres
1999-03-01 06:00:00 25.
1999-03-01 12:00:00 25.
1999-03-01 18:00:00 30. 30.
1999-03-02 00:00:00 30. 30.
1999-03-02 06:00:00 30. 20. 1001. 25. 1001.
1999-03-02 12:00:00 35. 25. 999. 30. 999.
1999-03-02 18:00:00 35. 25. 999. 30. 999.
1999-03-03 00:00:00 35. 25. 999. 30. 999.
1999-03-03 06:00:00 40. 25. 999. 30. 999.
1999-03-03 12:00:00 40. 25. 998. 35. 998.
1999-03-03 18:00:00 40. 30. 996. 35. 996.
1999-03-04 00:00:00 40. 30. 995. 40. 995.
1999-03-04 06:00:00 40. 32. 994. 40. 994.
1999-03-04 12:00:00 50. 35. 991. 45. 991.
1999-03-04 18:00:00 55. 40. 988. 50. 988.
1999-03-05 00:00:00 55. 45. 983. 55. 983.
1999-03-05 06:00:00 70. 50. 978. 65. 978.
1999-03-05 12:00:00 70. 60. 965. 80. 965.
1999-03-05 18:00:00 90. 70. 955. 95. 955.
1999-03-06 00:00:00 100. 80. 945. 105. 945.
1999-03-06 06:00:00 100. 80. 945. 105. 945.
1999-03-06 12:00:00 100. 80. 945. 105. 945.
1999-03-06 18:00:00 100. 75. 950. 100. 950.
1999-03-07 00:00:00 100. 80. 945. 105. 945.
1999-03-07 06:00:00 105. 85. 938. 110. 938.
jtwc_sh reunion neumann
1999-03-07 12:00:00 110. 90. 930. 120. 930.
1999-03-07 18:00:00 110. 90. 930. 120. 930.
1999-03-08 00:00:00 105. 90. 930. 120. 930.
1999-03-08 06:00:00 100. 85. 940. 110. 940.
1999-03-08 12:00:00 100. 75. 950. 100. 950.
1999-03-08 18:00:00 100. 70. 955. 95. 955.
1999-03-09 00:00:00 100. 65. 960. 85. 960.
1999-03-09 06:00:00 100. 70. 955. 95. 955.
1999-03-09 12:00:00 95. 70. 955. 95. 955.
1999-03-09 18:00:00 90. 70. 955. 95. 955.
1999-03-10 00:00:00 85. 60. 967. 80. 967.
1999-03-10 06:00:00 85. 55. 974. 70. 974.
1999-03-10 12:00:00 80. 50. 978. 65. 978.
1999-03-10 18:00:00 80. 45. 983. 55. 983.
1999-03-11 00:00:00 75. 45. 983. 55. 983.
1999-03-11 06:00:00 75. 45. 983. 55. 983.
1999-03-11 12:00:00 75. 45. 983. 55. 983.
1999-03-11 18:00:00 75. 45. 983. 55. 983.
1999-03-12 00:00:00 65. 43. 985. 55. 985.
1999-03-12 06:00:00 60. 40. 987. 50. 987.
1999-03-12 12:00:00 45. 35. 990. 45. 990.
1999-03-12 18:00:00 35. 30. 995. 40. 995.
1999-03-13 00:00:00 35. 30. 997. 35. 997.
1999-03-13 06:00:00 35. 25. 1000. 30. 1000.
jtwc_sh reunion neumann
1999-03-13 12:00:00 35. 25. 1000. 30. 1000.
1999-03-13 18:00:00 35. 25. 1000. 30. 1000.
1999-03-14 00:00:00 35. 25. 1000. 30. 1000.
1999-03-14 06:00:00 35. 25. 1000. 30. 1000.
1999-03-14 12:00:00 30. 25. 1000. 30. 1000.
1999-03-14 18:00:00 30. 20. 1002. 25. 1002.
1999-03-15 00:00:00 25. 20. 1002. 25. 1002.
1999-03-15 06:00:00 20. 20. 1002. 25. 1002.
1999-03-15 12:00:00 20. 1002. 25. 1002.
1999-03-15 18:00:00 20. 1003. 25. 1003.
1999-03-16 00:00:00 20. 1003. 25. 1003.
1999-03-16 06:00:00 1004. 20. 1004.
1999-03-16 12:00:00 1004. 20. 1004.
1999-03-16 18:00:00 1004. 20. 1004.
1999-03-17 00:00:00 1004. 20. 1004.
1999-03-17 06:00:00 1004. 20. 1004.
1999-03-17 12:00:00 1004. 20. 1004.
1999-03-17 18:00:00 1004. 20. 1004.
1999-03-18 00:00:00 1005. 20. 1005.
1999-03-18 06:00:00 1005. 20. 1005.
1999-03-18 12:00:00 1005. 20. 1005.
1999-03-18 18:00:00 1005. 20. 1005.
1999-03-19 00:00:00 1006. 15. 1006.
1999-03-19 06:00:00 1006. 15. 1006.
jtwc_sh reunion neumann
1999-03-19 12:00:00 1006. 15. 1006.

top of page Links to source data

Source Source file Format
jtwc_sh bsh251999.txt ATCF
reunion WMO-Best-Tracks.txt:Line=18492:davina WMO (old format)
neumann tracks.sh:Storm=1165:DAVINA:BSH251999:Reunion HURDAT